Погода Тжаненина неделю

Кадако, Свазиленд

02 - 08 марта
  • 02марта
    Сегодня
    +20°
    +33°
    Ясно и безоблачно
    ВремяПогодаТемператураВлажностьДавлениеВетер, м/сВероятность осадков
    02:00Практически безоблачно+20°C96 %736 мм1.3 м/с5 %
    05:00Ясно и безоблачно+20°C95 %736 мм0.9 м/с5 %
    08:00Небольшая облачность+23°C76 %737 мм0.9 м/с5 %
    11:00Практически безоблачно+29°C50 %736 мм3.3 м/с5 %
    14:00Ясно и безоблачно+33°C41 %735 мм4.1 м/с5 %
    17:00Ясно и безоблачно+32°C38 %734 мм2.5 м/с5 %
    20:00Ясно и безоблачно+25°C71 %734 мм3.8 м/с5 %
    23:00Ясно и безоблачно+23°C87 %736 мм1.2 м/с5 %
  • 03марта
    Воскресенье
    +21°
    +34°
    Ясно и безоблачно
    ВремяПогодаТемператураВлажностьДавлениеВетер, м/сВероятность осадков
    02:00Ясно и безоблачно+21°C95 %735 мм0.8 м/с5 %
    05:00Ясно и безоблачно+21°C97 %736 мм1.1 м/с5 %
    08:00Практически безоблачно+25°C78 %737 мм0.8 м/с3 %
    11:00Ясно и безоблачно+30°C54 %736 мм1.2 м/с14 %
    14:00Ясно и безоблачно+33°C40 %734 мм1.3 м/с5 %
    17:00Ясно и безоблачно+32°C41 %733 мм2.3 м/с3 %
    20:00Ясно и безоблачно+26°C71 %734 мм3.6 м/с4 %
    23:00Ясно и безоблачно+24°C85 %736 мм0.7 м/с11 %
  • 04марта
    Понедельник
    +23°
    +35°
    Ясно и безоблачно
    ВремяПогодаТемператураВлажностьДавлениеВетер, м/сВероятность осадков
    02:00Практически безоблачно+23°C89 %735 мм0.8 м/с20 %
    05:00Практически безоблачно+21°C96 %734 мм1.3 м/с12 %
    08:00Ясно и безоблачно+25°C76 %735 мм2.1 м/с5 %
    11:00Ясно и безоблачно+31°C49 %734 мм2.9 м/с2 %
    14:00Ясно и безоблачно+34°C39 %732 мм4.0 м/с1 %
    17:00Ясно и безоблачно+32°C39 %731 мм4.6 м/с5 %
    20:00Ясно и безоблачно+26°C72 %732 мм4.3 м/с7 %
    23:00Ясно и безоблачно+24°C83 %733 мм1.5 м/с6 %
  • 05марта
    Вторник
    +25°
    +37°
    Ясно и безоблачно
    ВремяПогодаТемператураВлажностьДавлениеВетер, м/сВероятность осадков
    02:00Ясно и безоблачно+24°C91 %732 мм2.4 м/с3 %
    05:00Ясно и безоблачно+24°C88 %731 мм4.1 м/с5 %
    08:00Ясно и безоблачно+27°C68 %732 мм5.5 м/с5 %
    11:00Ясно и безоблачно+33°C43 %731 мм5.7 м/с5 %
    14:00Ясно и безоблачно+37°C30 %729 мм5.5 м/с5 %
    17:00Практически безоблачно+35°C30 %728 мм4.3 м/с6 %
    20:00Ясно и безоблачно+30°C57 %729 мм4.0 м/с4 %
    23:00Ясно и безоблачно+28°C66 %730 мм2.9 м/с10 %
  • 06марта
    Среда
    +22°
    +35°
    Небольшая облачность
    ВремяПогодаТемператураВлажностьДавлениеВетер, м/сВероятность осадков
    02:00Ясно и безоблачно+27°C67 %730 мм2.9 м/с7 %
    05:00Ясно и безоблачно+27°C57 %730 мм3.2 м/с7 %
    08:00Ясно и безоблачно+26°C68 %733 мм4.7 м/с14 %
    11:00Практически безоблачно+31°C51 %733 мм3.8 м/с8 %
    14:00Небольшая облачность+34°C40 %732 мм2.1 м/с5 %
    17:00Практически безоблачно+32°C45 %732 мм4.3 м/с6 %
    20:00Ясно и безоблачно+26°C67 %734 мм4.8 м/с17 %
    23:00Облачно с прояснениями, небольшой дождь+24°C74 %736 мм3.9 м/с51 %
Мы используем cookies
Соглашаюсь